createdAt,value
2022-12-25T00:00:22.419Z,73.40
2022-12-25T00:02:53.056Z,73.46
2022-12-25T00:05:23.707Z,73.39
2022-12-25T00:07:54.809Z,73.63
2022-12-25T00:10:25.422Z,73.73
2022-12-25T00:12:56.237Z,73.58
2022-12-25T00:15:26.695Z,73.44
2022-12-25T00:17:57.237Z,73.45
2022-12-25T00:20:27.731Z,73.56
2022-12-25T00:22:58.181Z,73.62
2022-12-25T00:25:28.640Z,73.65
2022-12-25T00:27:59.109Z,73.46
2022-12-25T00:30:29.634Z,73.37
2022-12-25T00:33:00.057Z,73.57
2022-12-25T00:35:30.593Z,73.62
2022-12-25T00:38:01.033Z,73.41
2022-12-25T00:40:31.515Z,73.57
2022-12-25T00:43:01.982Z,73.71
2022-12-25T00:45:32.479Z,73.58
2022-12-25T00:48:03.154Z,73.38
2022-12-25T00:50:33.979Z,73.63
2022-12-25T00:53:04.399Z,73.63
2022-12-25T00:55:34.824Z,73.67
2022-12-25T00:58:05.307Z,73.77
2022-12-25T01:00:35.835Z,73.76
2022-12-25T01:03:06.613Z,73.71
2022-12-25T01:05:37.165Z,73.72
2022-12-25T01:08:07.940Z,73.66
2022-12-25T01:10:38.525Z,73.81
2022-12-25T01:13:08.971Z,73.80
2022-12-25T01:15:40.546Z,73.77
2022-12-25T01:18:13.006Z,73.97
2022-12-25T01:20:43.650Z,73.93
2022-12-25T01:23:14.335Z,74.03
2022-12-25T01:25:44.878Z,74.13
2022-12-25T01:28:16.584Z,74.37
2022-12-25T01:30:51.674Z,74.30
2022-12-25T01:33:22.104Z,74.35
2022-12-25T01:35:52.596Z,74.52
2022-12-25T01:38:23.167Z,74.32
2022-12-25T01:40:53.682Z,74.51
2022-12-25T01:43:28.110Z,74.34
2022-12-25T01:45:59.035Z,74.64
2022-12-25T01:48:33.064Z,74.46
2022-12-25T01:51:07.353Z,74.55
2022-12-25T01:53:38.003Z,74.54
2022-12-25T01:56:10.272Z,74.51
2022-12-25T01:58:39.267Z,74.52
2022-12-25T02:01:10.853Z,74.59
2022-12-25T02:03:42.868Z,74.68
2022-12-25T02:06:13.398Z,74.66
2022-12-25T02:08:44.713Z,74.65
2022-12-25T02:11:35.271Z,74.65
2022-12-25T02:14:05.885Z,74.68
2022-12-25T02:16:58.347Z,74.67
2022-12-25T02:19:52.601Z,74.77
2022-12-25T02:22:36.292Z,74.52
2022-12-25T02:25:26.647Z,74.68
2022-12-25T02:28:08.942Z,74.54
2022-12-25T02:30:45.332Z,74.52
2022-12-25T02:33:41.784Z,74.57
2022-12-25T02:36:16.607Z,74.61
2022-12-25T02:39:04.517Z,74.65
2022-12-25T02:41:40.189Z,74.83
2022-12-25T02:44:34.069Z,74.70
2022-12-25T02:47:40.032Z,74.90
2022-12-25T02:50:30.225Z,74.74
2022-12-25T02:53:21.184Z,74.74
2022-12-25T02:56:11.852Z,74.68
2022-12-25T02:59:01.473Z,74.74
2022-12-25T03:01:53.602Z,74.81
2022-12-25T03:04:45.886Z,74.75
2022-12-25T03:07:22.156Z,74.72
2022-12-25T03:10:16.543Z,74.75
2022-12-25T03:12:51.985Z,74.87
2022-12-25T03:15:41.489Z,74.95
2022-12-25T03:18:17.153Z,74.88
2022-12-25T03:21:05.167Z,74.74
2022-12-25T03:23:56.265Z,74.61
2022-12-25T03:26:46.350Z,74.65
2022-12-25T03:29:36.772Z,74.58
2022-12-25T03:32:16.120Z,74.70
2022-12-25T03:35:15.796Z,74.69
2022-12-25T03:38:14.076Z,74.79
2022-12-25T03:41:16.058Z,74.61
2022-12-25T03:44:10.716Z,74.73
2022-12-25T03:47:06.863Z,74.70
2022-12-25T03:50:09.098Z,74.76
2022-12-25T03:52:58.805Z,74.76
2022-12-25T03:55:47.171Z,74.83
2022-12-25T03:58:41.047Z,74.99
2022-12-25T04:01:29.591Z,74.73
2022-12-25T04:04:14.268Z,74.75
2022-12-25T04:07:02.413Z,74.80
2022-12-25T04:09:50.549Z,74.82
2022-12-25T04:12:38.485Z,74.87
2022-12-25T04:15:28.820Z,74.93
2022-12-25T04:18:17.303Z,74.82
2022-12-25T04:21:05.277Z,74.69
2022-12-25T04:23:53.784Z,74.78
2022-12-25T04:26:42.189Z,74.59
2022-12-25T04:29:30.684Z,74.61
2022-12-25T04:32:18.773Z,74.58
2022-12-25T04:35:07.314Z,74.34
2022-12-25T04:37:37.854Z,74.61
2022-12-25T04:40:10.714Z,74.32
2022-12-25T04:42:41.264Z,74.47
2022-12-25T04:45:13.496Z,74.62
2022-12-25T04:47:44.058Z,74.62
2022-12-25T04:50:14.557Z,74.78
2022-12-25T04:52:45.055Z,74.76
2022-12-25T04:55:15.491Z,74.71
2022-12-25T04:57:46.179Z,74.62
2022-12-25T05:00:18.360Z,74.44
2022-12-25T05:02:49.014Z,74.68
2022-12-25T05:05:19.743Z,74.37
2022-12-25T05:07:50.210Z,74.39
2022-12-25T05:10:21.211Z,74.41
2022-12-25T05:12:51.813Z,74.57
2022-12-25T05:15:22.288Z,74.56
2022-12-25T05:17:54.294Z,74.51
2022-12-25T05:20:25.417Z,74.41
2022-12-25T05:22:55.841Z,74.52
2022-12-25T05:25:26.512Z,74.45
2022-12-25T05:27:56.987Z,74.43
2022-12-25T05:30:27.944Z,74.44
2022-12-25T05:32:58.390Z,74.49
2022-12-25T05:35:28.864Z,74.62
2022-12-25T05:37:59.566Z,74.72
2022-12-25T05:40:30.032Z,74.75
2022-12-25T05:43:00.542Z,74.64
2022-12-25T05:45:31.983Z,74.60
2022-12-25T05:48:02.617Z,74.39
2022-12-25T05:50:33.070Z,74.66
2022-12-25T05:53:10.683Z,74.44
2022-12-25T05:55:44.029Z,74.19
2022-12-25T05:58:14.838Z,74.16
2022-12-25T06:00:46.093Z,74.11
2022-12-25T06:03:16.749Z,74.28
2022-12-25T06:05:47.278Z,74.30
2022-12-25T06:08:17.761Z,74.17
2022-12-25T06:10:48.643Z,74.44
2022-12-25T06:13:19.074Z,74.20
2022-12-25T06:15:49.681Z,74.45
2022-12-25T06:18:20.280Z,74.18
2022-12-25T06:20:50.771Z,74.36
2022-12-25T06:23:21.236Z,74.44
2022-12-25T06:25:51.710Z,74.26
2022-12-25T06:28:22.356Z,74.38
2022-12-25T06:30:52.835Z,74.52
2022-12-25T06:33:23.390Z,74.66
2022-12-25T06:35:53.949Z,74.10
2022-12-25T06:38:24.930Z,73.99
2022-12-25T06:40:55.378Z,74.07
2022-12-25T06:43:25.829Z,74.14
2022-12-25T06:45:56.342Z,74.06
2022-12-25T06:48:26.862Z,74.25
2022-12-25T06:50:57.354Z,74.10
2022-12-25T06:53:30.180Z,74.28
2022-12-25T06:56:07.868Z,74.59
2022-12-25T06:58:38.400Z,74.29
2022-12-25T07:01:15.612Z,74.55
2022-12-25T07:03:48.613Z,74.34
2022-12-25T07:06:19.131Z,74.34
2022-12-25T07:08:49.638Z,74.30
2022-12-25T07:11:21.025Z,74.24
2022-12-25T07:13:51.535Z,74.40
2022-12-25T07:16:22.243Z,74.28
2022-12-25T07:18:52.778Z,74.04
2022-12-25T07:21:24.168Z,74.21
2022-12-25T07:23:54.782Z,74.18
2022-12-25T07:26:25.214Z,73.96
2022-12-25T07:28:56.271Z,73.99
2022-12-25T07:31:26.770Z,74.03
2022-12-25T07:33:57.323Z,73.93
2022-12-25T07:36:28.262Z,74.08
2022-12-25T07:38:58.750Z,73.96
2022-12-25T07:41:29.322Z,74.18
2022-12-25T07:44:07.221Z,74.18
2022-12-25T07:46:37.655Z,73.89
2022-12-25T07:49:08.205Z,74.14
2022-12-25T07:51:38.676Z,74.06
2022-12-25T07:54:09.576Z,74.16
2022-12-25T07:56:40.034Z,74.21
2022-12-25T07:59:10.482Z,73.93
2022-12-25T08:01:41.091Z,74.03
2022-12-25T08:04:12.695Z,73.82
2022-12-25T08:06:43.188Z,73.84
2022-12-25T08:09:14.516Z,73.78
2022-12-25T08:11:48.704Z,73.67
2022-12-25T08:14:19.165Z,73.56
2022-12-25T08:16:49.680Z,73.57
2022-12-25T08:19:20.569Z,73.57
2022-12-25T08:21:51.110Z,73.47
2022-12-25T08:24:21.875Z,73.56
2022-12-25T08:26:52.438Z,73.53
2022-12-25T08:29:22.855Z,73.53
2022-12-25T08:31:53.434Z,73.48
2022-12-25T08:34:24.008Z,73.64
2022-12-25T08:36:54.606Z,73.51
2022-12-25T08:39:25.730Z,73.00
2022-12-25T08:41:56.374Z,73.00
2022-12-25T08:44:26.840Z,73.15
2022-12-25T08:46:57.332Z,73.15
2022-12-25T08:49:29.203Z,73.01
2022-12-25T08:51:59.926Z,72.91
2022-12-25T08:54:32.479Z,72.68
2022-12-25T08:57:03.270Z,72.70
2022-12-25T08:59:33.737Z,72.85
2022-12-25T09:02:04.380Z,72.66
2022-12-25T09:04:35.307Z,72.65
2022-12-25T09:07:05.867Z,72.39
2022-12-25T09:09:36.312Z,72.44
2022-12-25T09:12:07.087Z,72.09
2022-12-25T09:14:37.661Z,72.28
2022-12-25T09:17:08.105Z,72.33
2022-12-25T09:19:38.544Z,72.16
2022-12-25T09:22:09.003Z,72.22
2022-12-25T09:24:39.968Z,72.06
2022-12-25T09:27:10.539Z,71.83
2022-12-25T09:29:40.990Z,71.78
2022-12-25T09:32:11.590Z,71.63
2022-12-25T09:34:42.041Z,71.42
2022-12-25T09:37:12.490Z,71.52
2022-12-25T09:39:46.309Z,71.32
2022-12-25T09:42:21.393Z,71.45
2022-12-25T09:44:56.427Z,71.12
2022-12-25T09:47:30.242Z,71.36
2022-12-25T09:50:05.293Z,71.34
2022-12-25T09:52:44.614Z,71.26
2022-12-25T09:55:20.522Z,71.29
2022-12-25T09:57:53.899Z,71.45
2022-12-25T10:00:27.063Z,71.44
2022-12-25T10:03:13.565Z,71.11
2022-12-25T10:05:59.933Z,70.81
2022-12-25T10:08:47.959Z,70.62
2022-12-25T10:11:32.746Z,70.56
2022-12-25T10:14:09.729Z,70.67
2022-12-25T10:16:50.800Z,70.33
2022-12-25T10:19:31.705Z,70.24
2022-12-25T10:22:09.189Z,69.90
2022-12-25T10:24:45.193Z,69.62
2022-12-25T10:27:19.653Z,69.50
2022-12-25T10:29:54.864Z,69.43
2022-12-25T10:32:25.521Z,69.18
2022-12-25T10:34:56.344Z,69.09
2022-12-25T10:37:27.616Z,68.75
2022-12-25T10:39:58.410Z,68.35
2022-12-25T10:42:38.510Z,68.24
2022-12-25T10:45:11.393Z,68.14
2022-12-25T10:47:42.944Z,67.95
2022-12-25T10:50:21.686Z,67.92
2022-12-25T10:53:00.591Z,67.97
2022-12-25T10:55:31.320Z,67.75
2022-12-25T10:58:02.935Z,67.28
2022-12-25T11:00:34.749Z,67.73
2022-12-25T11:03:05.311Z,67.12
2022-12-25T11:05:37.115Z,67.44
2022-12-25T11:08:22.156Z,67.48
2022-12-25T11:10:58.490Z,67.49
2022-12-25T11:13:30.942Z,67.41
2022-12-25T11:16:11.142Z,67.30
2022-12-25T11:18:49.434Z,67.01
2022-12-25T11:21:24.929Z,67.31
2022-12-25T11:24:01.413Z,67.44
2022-12-25T11:26:37.324Z,67.17
2022-12-25T11:29:17.132Z,66.90
2022-12-25T11:31:48.555Z,66.86
2022-12-25T11:34:31.688Z,66.43
2022-12-25T11:37:04.256Z,66.10
2022-12-25T11:39:37.140Z,65.90
2022-12-25T11:42:15.170Z,65.78
2022-12-25T11:44:50.690Z,65.39
2022-12-25T11:47:26.258Z,65.18
2022-12-25T11:50:03.425Z,64.71
2022-12-25T11:52:39.502Z,64.78
2022-12-25T11:55:25.083Z,64.55
2022-12-25T11:57:58.982Z,64.63
2022-12-25T12:00:31.366Z,64.17
2022-12-25T12:03:07.892Z,64.13
2022-12-25T12:05:49.711Z,64.15
2022-12-25T12:08:20.255Z,64.05
2022-12-25T12:11:16.921Z,63.66
2022-12-25T12:13:58.288Z,63.47
2022-12-25T12:16:29.288Z,63.37
2022-12-25T12:18:59.876Z,63.12
2022-12-25T12:21:32.150Z,62.68
2022-12-25T12:24:07.928Z,61.78
2022-12-25T12:26:42.513Z,61.64
2022-12-25T12:29:29.467Z,61.42
2022-12-25T12:32:03.964Z,61.31
2022-12-25T12:34:40.410Z,61.05
2022-12-25T12:37:24.792Z,60.91
2022-12-25T12:39:56.731Z,60.76
2022-12-25T12:42:30.222Z,60.44
2022-12-25T12:45:11.159Z,60.23
2022-12-25T12:47:46.540Z,60.37
2022-12-25T12:50:36.028Z,60.25
2022-12-25T12:53:28.470Z,60.22
2022-12-25T12:56:09.635Z,60.38
2022-12-25T12:58:46.312Z,60.33
2022-12-25T13:01:34.121Z,60.46
2022-12-25T13:04:24.447Z,60.20
2022-12-25T13:07:04.725Z,60.20
2022-12-25T13:09:54.093Z,60.31
2022-12-25T13:12:26.138Z,60.46
2022-12-25T13:14:56.632Z,60.00
2022-12-25T13:17:28.635Z,59.79
2022-12-25T13:19:59.111Z,59.34
2022-12-25T13:22:33.922Z,59.57
2022-12-25T13:25:07.786Z,59.39
2022-12-25T13:27:38.649Z,59.48
2022-12-25T13:30:20.689Z,59.59
2022-12-25T13:32:51.353Z,59.95
2022-12-25T13:35:24.048Z,60.16
2022-12-25T13:37:56.213Z,60.28
2022-12-25T13:40:28.942Z,60.37
2022-12-25T13:43:02.311Z,60.59
2022-12-25T13:45:35.062Z,60.95
2022-12-25T13:48:17.225Z,61.09
2022-12-25T13:50:56.865Z,61.28
2022-12-25T13:53:27.406Z,61.37
2022-12-25T13:55:59.547Z,61.57
2022-12-25T13:58:34.795Z,61.62
2022-12-25T14:01:06.324Z,61.74
2022-12-25T14:03:41.015Z,61.94
2022-12-25T14:06:20.808Z,61.98
2022-12-25T14:08:52.564Z,62.25
2022-12-25T14:11:25.439Z,62.49
2022-12-25T14:14:01.286Z,62.49
2022-12-25T14:16:32.311Z,62.68
2022-12-25T14:19:04.715Z,62.96
2022-12-25T14:21:38.396Z,62.99
2022-12-25T14:24:16.417Z,63.16
2022-12-25T14:26:46.902Z,63.28
2022-12-25T14:29:25.044Z,63.43
2022-12-25T14:32:00.574Z,63.65
2022-12-25T14:34:33.081Z,63.73
2022-12-25T14:37:04.792Z,63.72
2022-12-25T14:39:37.714Z,64.15
2022-12-25T14:42:20.320Z,63.89
2022-12-25T14:45:07.453Z,64.01
2022-12-25T14:47:51.991Z,63.92
2022-12-25T14:50:30.680Z,63.87
2022-12-25T14:53:01.567Z,64.43
2022-12-25T14:55:32.710Z,64.54
2022-12-25T14:58:05.979Z,64.38
2022-12-25T15:00:38.776Z,64.67
2022-12-25T15:03:20.981Z,64.61
2022-12-25T15:06:01.316Z,64.84
2022-12-25T15:08:34.228Z,64.98
2022-12-25T15:11:04.851Z,65.44
2022-12-25T15:13:35.605Z,65.35
2022-12-25T15:16:13.764Z,65.42
2022-12-25T15:18:47.139Z,65.38
2022-12-25T15:21:22.107Z,65.53
2022-12-25T15:23:53.088Z,65.34
2022-12-25T15:26:23.578Z,65.45
2022-12-25T15:28:54.052Z,65.41
2022-12-25T15:31:27.066Z,65.29
2022-12-25T15:33:59.155Z,65.47
2022-12-25T15:36:30.067Z,65.36
2022-12-25T15:39:00.524Z,65.08
2022-12-25T15:41:50.964Z,64.88
2022-12-25T15:44:21.836Z,65.13
2022-12-25T15:46:52.502Z,65.35
2022-12-25T15:49:23.201Z,65.12
2022-12-25T15:51:53.666Z,65.27
2022-12-25T15:54:24.223Z,65.01
2022-12-25T15:56:58.271Z,65.39
2022-12-25T15:59:29.076Z,64.99
2022-12-25T16:02:02.597Z,65.63
2022-12-25T16:04:33.304Z,65.40
2022-12-25T16:07:03.945Z,65.38
2022-12-25T16:09:34.466Z,65.45
2022-12-25T16:12:04.965Z,65.61
2022-12-25T16:14:35.509Z,65.44
2022-12-25T16:17:06.417Z,65.54
2022-12-25T16:19:36.959Z,65.77
2022-12-25T16:22:13.943Z,65.71
2022-12-25T16:24:44.365Z,66.01
2022-12-25T16:27:14.860Z,65.82
2022-12-25T16:29:45.440Z,65.94
2022-12-25T16:32:17.284Z,66.01
2022-12-25T16:34:49.409Z,65.80
2022-12-25T16:37:20.227Z,66.10
2022-12-25T16:39:50.657Z,66.05
2022-12-25T16:42:21.183Z,65.65
2022-12-25T16:44:51.820Z,65.88
2022-12-25T16:47:22.292Z,65.76
2022-12-25T16:49:52.721Z,65.93
2022-12-25T16:52:23.159Z,65.97
2022-12-25T16:54:53.620Z,66.14
2022-12-25T16:57:24.056Z,66.04
2022-12-25T16:59:54.982Z,65.97
2022-12-25T17:02:25.625Z,66.36
2022-12-25T17:04:56.217Z,66.16
2022-12-25T17:07:26.676Z,66.14
2022-12-25T17:09:58.121Z,65.87
2022-12-25T17:12:28.640Z,65.93
2022-12-25T17:14:59.106Z,65.91
2022-12-25T17:17:29.942Z,66.18
2022-12-25T17:20:00.426Z,66.21
2022-12-25T17:22:30.901Z,66.08
2022-12-25T17:25:01.423Z,66.34
2022-12-25T17:27:31.928Z,66.37
2022-12-25T17:30:02.379Z,66.30
2022-12-25T17:32:32.909Z,66.32
2022-12-25T17:35:04.030Z,66.41
2022-12-25T17:37:35.847Z,66.61
2022-12-25T17:40:07.741Z,66.57
2022-12-25T17:42:38.180Z,66.46
2022-12-25T17:45:11.140Z,66.74
2022-12-25T17:47:41.579Z,66.65
2022-12-25T17:50:12.331Z,66.83
2022-12-25T17:52:42.743Z,66.89
2022-12-25T17:55:13.389Z,66.80
2022-12-25T17:57:43.896Z,66.89
2022-12-25T18:00:16.063Z,67.24
2022-12-25T18:02:47.350Z,67.01
2022-12-25T18:05:18.235Z,67.06
2022-12-25T18:07:48.824Z,67.33
2022-12-25T18:10:19.680Z,67.08
2022-12-25T18:12:50.212Z,66.73
2022-12-25T18:15:20.897Z,67.41
2022-12-25T18:17:51.364Z,67.02
2022-12-25T18:20:22.145Z,67.11
2022-12-25T18:22:52.577Z,67.15
2022-12-25T18:25:23.073Z,67.16
2022-12-25T18:27:55.114Z,67.00
2022-12-25T18:30:25.561Z,67.23
2022-12-25T18:32:56.391Z,67.10
2022-12-25T18:35:29.921Z,67.36
2022-12-25T18:38:00.715Z,67.47
2022-12-25T18:40:31.750Z,67.25
2022-12-25T18:43:03.679Z,67.30
2022-12-25T18:45:34.618Z,67.38
2022-12-25T18:48:06.350Z,67.68
2022-12-25T18:50:38.188Z,67.51
2022-12-25T18:53:09.064Z,67.33
2022-12-25T18:55:42.630Z,67.72
2022-12-25T18:58:13.096Z,67.53
2022-12-25T19:00:43.572Z,67.61
2022-12-25T19:03:14.280Z,67.47
2022-12-25T19:05:44.782Z,67.67
2022-12-25T19:08:15.527Z,67.73
2022-12-25T19:10:46.391Z,67.70
2022-12-25T19:13:16.932Z,67.82
2022-12-25T19:15:47.461Z,67.73
2022-12-25T19:18:17.997Z,67.96
2022-12-25T19:20:48.438Z,67.86
2022-12-25T19:23:18.836Z,67.83
2022-12-25T19:25:49.749Z,67.99
2022-12-25T19:28:20.258Z,68.12
2022-12-25T19:30:52.776Z,68.16
2022-12-25T19:33:23.834Z,68.39
2022-12-25T19:35:54.362Z,68.29
2022-12-25T19:38:24.824Z,68.12
2022-12-25T19:41:01.526Z,68.05
2022-12-25T19:43:33.938Z,68.30
2022-12-25T19:46:05.832Z,68.30
2022-12-25T19:48:37.341Z,68.32
2022-12-25T19:51:17.367Z,68.23
2022-12-25T19:53:48.257Z,68.06
2022-12-25T19:56:19.506Z,68.43
2022-12-25T19:58:49.995Z,68.33
2022-12-25T20:01:23.136Z,68.45
2022-12-25T20:03:53.838Z,68.11
2022-12-25T20:06:26.595Z,68.29
2022-12-25T20:08:58.843Z,68.30
2022-12-25T20:11:29.073Z,68.29
2022-12-25T20:14:00.124Z,68.51
2022-12-25T20:16:31.108Z,68.45
2022-12-25T20:19:01.671Z,68.36
2022-12-25T20:21:32.168Z,68.35
2022-12-25T20:24:02.888Z,68.29
2022-12-25T20:26:33.934Z,68.36
2022-12-25T20:29:04.902Z,68.10
2022-12-25T20:31:36.444Z,68.04
2022-12-25T20:34:12.191Z,68.29
2022-12-25T20:36:42.908Z,68.24
2022-12-25T20:39:15.281Z,68.00
2022-12-25T20:41:47.774Z,67.87
2022-12-25T20:44:18.296Z,68.35
2022-12-25T20:46:48.764Z,68.21
2022-12-25T20:49:19.255Z,67.97
2022-12-25T20:51:49.681Z,68.06
2022-12-25T20:54:20.235Z,68.10
2022-12-25T20:56:51.423Z,68.46
2022-12-25T20:59:21.902Z,68.42
2022-12-25T21:01:54.385Z,68.63
2022-12-25T21:04:24.965Z,68.32
2022-12-25T21:06:55.519Z,68.27
2022-12-25T21:09:26.051Z,68.55
2022-12-25T21:11:56.502Z,68.21
2022-12-25T21:14:29.676Z,68.42
2022-12-25T21:17:00.292Z,68.70
2022-12-25T21:19:30.899Z,68.63
2022-12-25T21:22:01.405Z,68.87
2022-12-25T21:24:31.835Z,68.66
2022-12-25T21:27:02.416Z,68.72
2022-12-25T21:29:32.884Z,68.53
2022-12-25T21:32:20.792Z,68.83
2022-12-25T21:34:51.246Z,68.79
2022-12-25T21:37:21.726Z,68.95
2022-12-25T21:39:53.676Z,69.01
2022-12-25T21:42:24.845Z,69.05
2022-12-25T21:44:55.264Z,68.80
2022-12-25T21:47:25.812Z,69.07
2022-12-25T21:50:39.115Z,68.99
2022-12-25T21:53:09.970Z,69.21
2022-12-25T21:55:40.524Z,69.18
2022-12-25T21:58:11.121Z,69.11
2022-12-25T22:00:41.572Z,68.91
2022-12-25T22:03:12.068Z,69.49
2022-12-25T22:06:00.303Z,69.24
2022-12-25T22:08:33.484Z,69.34
2022-12-25T22:11:26.803Z,69.24
2022-12-25T22:14:14.899Z,69.50
2022-12-25T22:17:03.186Z,69.48
2022-12-25T22:19:43.198Z,69.43
2022-12-25T22:22:14.183Z,69.37
2022-12-25T22:24:45.145Z,69.68
2022-12-25T22:27:16.366Z,69.47
2022-12-25T22:29:47.652Z,69.68
2022-12-25T22:32:19.362Z,69.56
2022-12-25T22:34:49.847Z,69.69
2022-12-25T22:37:21.205Z,69.77
2022-12-25T22:39:51.944Z,69.73
2022-12-25T22:42:22.416Z,69.68
2022-12-25T22:44:52.873Z,69.55
2022-12-25T22:47:23.486Z,70.10
2022-12-25T22:49:53.968Z,70.17
2022-12-25T22:52:24.843Z,69.93
2022-12-25T22:54:55.352Z,70.17
2022-12-25T22:57:26.111Z,70.01
2022-12-25T22:59:56.742Z,70.22
2022-12-25T23:02:27.467Z,70.40
2022-12-25T23:04:58.310Z,70.37
2022-12-25T23:07:28.746Z,70.37
2022-12-25T23:09:59.216Z,70.47
2022-12-25T23:12:47.803Z,70.41
2022-12-25T23:15:18.727Z,70.48
2022-12-25T23:18:05.704Z,70.63
2022-12-25T23:20:54.495Z,70.37
2022-12-25T23:23:42.687Z,70.57
2022-12-25T23:26:14.372Z,70.47
2022-12-25T23:29:02.935Z,70.57
2022-12-25T23:31:36.093Z,70.57
2022-12-25T23:34:07.542Z,70.68
2022-12-25T23:36:38.165Z,70.71
2022-12-25T23:39:10.456Z,70.59
2022-12-25T23:41:42.901Z,70.59
2022-12-25T23:44:13.882Z,70.56
2022-12-25T23:46:53.332Z,70.57
2022-12-25T23:49:25.776Z,70.80
2022-12-25T23:51:57.145Z,70.75
2022-12-25T23:54:31.195Z,70.66
2022-12-25T23:57:02.204Z,70.66
2022-12-25T23:59:33.321Z,70.84
